Inola, Oklahoma
Current Conditions -  °F | °C
As of 11:55 AM on Friday 21 Nov 2014 (Local Time) from KGCM Reporting Station
Overcast Overcast  
Wind Chill: 55°   Ceiling: 1200
Heat Index: 55°   Visibility: 10mi
Dew Point: 48°   Wind: 14mph
Humidity: 77%   Direction: 160°SSE
Pressure: 30.16"   Gusts: 20mph
Location:  36.15°N, 95.51°W
Report Text: KGCM 211755Z AUTO 16012G17KT 10SM OVC012 13/09 A3016 RMK AO2
Loading
Personal Weather Stations






























Interactive Weather Map New forecast layout! Learn more

10-Day Weather Forecast

Advertisements
Track Severe Weather on mobile